Time;durP1;ratioP1;P1;durP2;ratioP2;P2;SDS_P1;SDS_P2;PMS_P1;PMS_P2;Temp;Humidity;BMP_temperature;BMP_pressure;BME280_temperature;BME280_humidity;BME280_pressure;Samples;Min_cycle;Max_cycle;Signal;HPM_P1;HPM_P2
2022/07/15 00:02:25;;;;;;;;;;;;;;;24.93;36.25;102255.47;7279020;19;153086;-60
2022/07/15 00:04:52;;;;;;;;;;;;;;;24.92;36.12;102259.44;7280628;19;153561;-60
2022/07/15 00:07:20;;;;;;;;;;;;;;;24.98;36.49;102251.72;7278759;19;153834;-60
2022/07/15 00:12:32;;;;;;;;;;;;;;;24.93;36.43;102246.97;7285832;19;153295;-61
2022/07/15 00:14:58;;;;;;;;;;;;;;;24.85;36.57;102246.81;7280785;19;152353;-61
2022/07/15 00:17:26;;;;;;;;;;;;;;;24.85;36.41;102249.63;7279244;19;154300;-61
2022/07/15 00:19:53;;;;;;;;;;;;;;;24.80;36.64;102242.88;7280904;19;154372;-60
2022/07/15 00:22:20;;;;;;;;;;;;;;;24.80;36.32;102240.03;7278175;19;152235;-61
2022/07/15 00:24:47;;;;;;;;;;;;;;;24.83;35.94;102244.28;7278560;19;153650;-61
2022/07/15 00:27:14;;;;;;;;;;;;;;;24.87;36.13;102248.19;7278014;19;153251;-61
2022/07/15 00:29:41;;;;;;;;;;;;;;;24.78;36.21;102250.00;7280313;19;152946;-60
2022/07/15 00:32:08;;;;;;;;;;;;;;;24.72;36.10;102243.56;7279050;19;153277;-60
2022/07/15 00:34:35;;;;;;;;;;;;;;;24.72;36.03;102257.72;7286997;19;151659;-60
2022/07/15 00:37:01;;;;;;;;;;;;;;;24.75;36.25;102248.63;7278859;19;152373;-60
2022/07/15 00:39:28;;;;;;;;;;;;;;;24.78;36.29;102252.81;7280090;19;153381;-60
2022/07/15 00:41:55;;;;;;;;;;;;;;;24.74;36.10;102254.59;7276856;19;152731;-59
2022/07/15 00:44:22;;;;;;;;;;;;;;;24.66;36.13;102249.63;7280661;19;153038;-60
2022/07/15 00:46:49;;;;;;;;;;;;;;;24.70;35.78;102262.00;7276798;19;153206;-60
2022/07/15 00:49:15;;;;;;;;;;;;;;;24.72;35.76;102251.22;7281403;19;151836;-60
2022/07/15 00:51:44;;;;;;;;;;;;;;;24.63;36.07;102250.22;7279147;19;152698;-59
2022/07/15 00:54:12;;;;;;;;;;;;;;;24.68;35.72;102248.16;7285943;19;153263;-60
2022/07/15 00:56:41;;;;;;;;;;;;;;;24.65;36.08;102248.78;7280416;19;152407;-60
2022/07/15 00:59:09;;;;;;;;;;;;;;;24.67;35.95;102251.28;7276938;19;153269;-60
2022/07/15 01:01:36;;;;;;;;;;;;;;;24.59;36.31;102241.50;7277881;19;152481;-60
2022/07/15 01:04:04;;;;;;;;;;;;;;;24.57;36.43;102242.97;7278553;19;153555;-60
2022/07/15 01:06:31;;;;;;;;;;;;;;;24.65;35.95;102234.66;7277346;19;154281;-60
2022/07/15 01:08:58;;;;;;;;;;;;;;;24.64;36.12;102234.94;7279554;19;155847;-61
2022/07/15 01:11:25;;;;;;;;;;;;;;;24.64;36.33;102243.41;7278292;19;153122;-59
2022/07/15 01:13:52;;;;;;;;;;;;;;;24.67;36.24;102240.81;7275600;19;153748;-61
2022/07/15 01:16:18;;;;;;;;;;;;;;;24.73;36.04;102238.75;7286962;19;152353;-60
2022/07/15 01:18:45;;;;;;;;;;;;;;;24.55;35.92;102248.91;7278754;19;154111;-60
2022/07/15 01:21:12;;;;;;;;;;;;;;;24.62;36.06;102243.72;7277841;19;153120;-60
2022/07/15 01:23:47;;;;;;;;;;;;;;;24.52;36.38;102246.72;7278213;19;152932;-59
2022/07/15 01:26:19;;;;;;;;;;;;;;;24.52;36.17;102243.03;7277096;19;153353;-59
2022/07/15 01:28:46;;;;;;;;;;;;;;;24.44;36.52;102238.88;7277537;19;153970;-59
2022/07/15 01:31:12;;;;;;;;;;;;;;;24.45;36.40;102242.56;7276416;19;153034;-60
2022/07/15 01:33:40;;;;;;;;;;;;;;;24.42;36.21;102241.19;7279473;19;153407;-59
2022/07/15 01:36:17;;;;;;;;;;;;;;;24.39;36.48;102236.16;7275159;19;152937;-60
2022/07/15 01:38:44;;;;;;;;;;;;;;;24.56;36.08;102241.28;7282314;19;152650;-60
2022/07/15 01:41:17;;;;;;;;;;;;;;;24.42;36.39;102229.91;7277317;19;154141;-60
2022/07/15 01:43:43;;;;;;;;;;;;;;;24.48;36.34;102239.16;7277263;19;152608;-60
2022/07/15 01:46:10;;;;;;;;;;;;;;;24.45;36.60;102237.75;7273301;19;153616;-60
2022/07/15 01:51:22;;;;;;;;;;;;;;;24.29;36.64;102244.78;7276236;19;153492;-60
2022/07/15 01:53:49;;;;;;;;;;;;;;;24.31;37.10;102236.81;7276199;19;154220;-59
2022/07/15 01:56:16;;;;;;;;;;;;;;;24.29;36.57;102251.25;7277376;19;153888;-60
2022/07/15 01:58:44;;;;;;;;;;;;;;;24.33;36.60;102246.69;7278339;19;153638;-59
2022/07/15 02:01:10;;;;;;;;;;;;;;;24.23;36.91;102251.63;7283380;19;153775;-60
2022/07/15 02:03:38;;;;;;;;;;;;;;;24.32;37.04;102244.16;7274908;19;154060;-59
2022/07/15 02:06:05;;;;;;;;;;;;;;;24.30;36.67;102241.63;7272982;19;153690;-59
2022/07/15 02:08:31;;;;;;;;;;;;;;;24.32;36.96;102241.31;7275600;19;152606;-59
2022/07/15 02:10:58;;;;;;;;;;;;;;;24.16;37.04;102242.69;7281007;19;152688;-59
2022/07/15 02:13:25;;;;;;;;;;;;;;;24.17;37.19;102248.00;7282980;19;154391;-59
2022/07/15 02:15:51;;;;;;;;;;;;;;;24.16;36.84;102243.53;7280852;19;153307;-59
2022/07/15 02:18:18;;;;;;;;;;;;;;;24.23;37.11;102246.81;7284298;19;153519;-58
2022/07/15 02:20:46;;;;;;;;;;;;;;;24.20;36.99;102247.44;7282389;19;153781;-59
2022/07/15 02:23:13;;;;;;;;;;;;;;;24.28;36.77;102248.72;7291652;19;152262;-59
2022/07/15 02:25:40;;;;;;;;;;;;;;;24.13;36.91;102234.75;7278829;19;154777;-59
2022/07/15 02:28:07;;;;;;;;;;;;;;;24.11;37.14;102240.72;7284755;19;153352;-58
2022/07/15 02:30:38;;;;;;;;;;;;;;;24.16;37.09;102243.53;7281576;19;153270;-59
2022/07/15 02:33:05;;;;;;;;;;;;;;;24.10;37.20;102247.50;7282606;19;154002;-60
2022/07/15 02:35:32;;;;;;;;;;;;;;;24.05;37.29;102246.72;7282018;19;153416;-60
2022/07/15 02:38:02;;;;;;;;;;;;;;;24.05;37.27;102250.41;7281893;19;152164;-59
2022/07/15 02:40:30;;;;;;;;;;;;;;;23.97;37.27;102253.03;7281238;19;155701;-60
2022/07/15 02:42:58;;;;;;;;;;;;;;;24.03;37.59;102251.84;7291774;19;153401;-60
2022/07/15 02:45:26;;;;;;;;;;;;;;;24.03;37.42;102252.66;7279522;19;153167;-59
2022/07/15 02:47:53;;;;;;;;;;;;;;;23.99;37.42;102260.06;7284653;19;154971;-59
2022/07/15 02:50:20;;;;;;;;;;;;;;;23.89;37.39;102252.53;7282276;19;153044;-60
2022/07/15 02:52:47;;;;;;;;;;;;;;;23.94;37.85;102248.81;7281861;19;153874;-60
2022/07/15 02:55:15;;;;;;;;;;;;;;;23.93;37.71;102245.19;7282478;19;154053;-60
2022/07/15 02:57:42;;;;;;;;;;;;;;;23.91;37.52;102246.59;7282414;19;152658;-60
2022/07/15 03:00:11;;;;;;;;;;;;;;;23.92;37.64;102246.31;7280261;19;154091;-60
2022/07/15 03:02:38;;;;;;;;;;;;;;;23.85;37.77;102243.00;7280244;19;151997;-60
2022/07/15 03:05:11;;;;;;;;;;;;;;;23.85;38.18;102257.13;7287722;19;153105;-60
2022/07/15 03:07:39;;;;;;;;;;;;;;;23.96;37.91;102246.56;7282604;19;152077;-60
2022/07/15 03:10:07;;;;;;;;;;;;;;;23.87;38.04;102249.19;7282528;19;153598;-60
2022/07/15 03:12:35;;;;;;;;;;;;;;;23.82;37.83;102251.22;7280310;19;154041;-60
2022/07/15 03:15:02;;;;;;;;;;;;;;;23.86;37.91;102246.66;7280843;19;154161;-59
2022/07/15 03:17:29;;;;;;;;;;;;;;;23.83;38.39;102250.09;7282789;19;153092;-60
2022/07/15 03:19:55;;;;;;;;;;;;;;;23.85;38.13;102250.63;7281294;19;153462;-59
2022/07/15 03:22:23;;;;;;;;;;;;;;;23.78;38.45;102255.78;7282359;19;152005;-59
2022/07/15 03:24:50;;;;;;;;;;;;;;;23.81;38.13;102252.38;7280565;19;152555;-59
2022/07/15 03:27:17;;;;;;;;;;;;;;;23.80;38.19;102259.16;7287153;19;154355;-59
2022/07/15 03:29:44;;;;;;;;;;;;;;;23.82;38.64;102254.06;7281657;19;152482;-59
2022/07/15 03:32:11;;;;;;;;;;;;;;;23.74;38.45;102257.53;7280377;19;153358;-59
2022/07/15 03:34:38;;;;;;;;;;;;;;;23.72;38.80;102251.34;7282926;19;152423;-60
2022/07/15 03:37:04;;;;;;;;;;;;;;;23.71;38.56;102250.50;7280150;19;153648;-59
2022/07/15 03:39:31;;;;;;;;;;;;;;;23.67;38.79;102251.38;7280380;19;152220;-59
2022/07/15 03:41:58;;;;;;;;;;;;;;;23.79;38.48;102257.47;7280341;19;152289;-59
2022/07/15 03:44:25;;;;;;;;;;;;;;;23.72;38.57;102255.00;7281993;19;152711;-59
2022/07/15 03:46:51;;;;;;;;;;;;;;;23.62;38.70;102251.47;7277361;19;154354;-59
2022/07/15 03:49:18;;;;;;;;;;;;;;;23.65;39.02;102254.53;7288408;19;151970;-59
2022/07/15 03:51:45;;;;;;;;;;;;;;;23.77;39.10;102254.94;7278044;19;156176;-59
2022/07/15 03:54:12;;;;;;;;;;;;;;;23.81;38.92;102256.03;7280970;19;153223;-59
2022/07/15 03:56:39;;;;;;;;;;;;;;;23.79;39.00;102252.69;7280880;19;152828;-58
2022/07/15 03:59:06;;;;;;;;;;;;;;;23.84;39.56;102260.25;7279573;19;153304;-58
2022/07/15 04:01:33;;;;;;;;;;;;;;;23.89;39.01;102246.91;7280440;19;152375;-58
2022/07/15 04:04:00;;;;;;;;;;;;;;;23.96;39.46;102254.19;7281580;19;152388;-59
2022/07/15 04:06:26;;;;;;;;;;;;;;;23.90;39.51;102247.75;7276848;19;153278;-59
2022/07/15 04:08:53;;;;;;;;;;;;;;;24.00;39.40;102253.28;7280723;19;152455;-59
2022/07/15 04:11:20;;;;;;;;;;;;;;;23.96;39.64;102254.19;7286885;19;152997;-59
2022/07/15 04:13:46;;;;;;;;;;;;;;;23.99;39.53;102254.41;7280443;19;152430;-58
2022/07/15 04:16:14;;;;;;;;;;;;;;;24.01;39.21;102249.31;7280185;19;154276;-59
2022/07/15 04:18:41;;;;;;;;;;;;;;;24.04;39.56;102247.88;7280842;19;154050;-59
2022/07/15 04:21:08;;;;;;;;;;;;;;;24.07;39.49;102248.13;7278770;19;152583;-60
2022/07/15 04:23:35;;;;;;;;;;;;;;;24.08;39.35;102243.28;7280259;19;153420;-59
2022/07/15 04:26:02;;;;;;;;;;;;;;;24.12;39.37;102244.41;7275775;19;152763;-59
2022/07/15 04:28:29;;;;;;;;;;;;;;;24.08;39.87;102235.66;7280923;19;152414;-59
2022/07/15 04:30:56;;;;;;;;;;;;;;;24.10;39.52;102239.03;7278699;19;152088;-59
2022/07/15 04:33:23;;;;;;;;;;;;;;;24.12;39.79;102236.75;7286492;19;154447;-59
2022/07/15 04:35:49;;;;;;;;;;;;;;;24.15;39.61;102247.44;7279093;19;152630;-59
2022/07/15 04:38:16;;;;;;;;;;;;;;;24.12;39.65;102245.22;7279391;19;153391;-58
2022/07/15 04:40:43;;;;;;;;;;;;;;;24.13;39.87;102246.91;7278118;19;152105;-58
2022/07/15 04:43:11;;;;;;;;;;;;;;;24.14;39.87;102247.75;7279822;19;153556;-58
2022/07/15 04:45:37;;;;;;;;;;;;;;;24.17;39.77;102245.19;7276521;19;153071;-58
2022/07/15 04:50:45;;;;;;;;;;;;;;;24.20;39.96;102246.59;7281285;19;152338;-59
2022/07/15 04:50:52;;;;;;;;;;;;;;;24.19;39.87;102247.72;7276629;19;152665;-58
2022/07/15 04:53:19;;;;;;;;;;;;;;;24.21;39.53;102239.78;7285789;19;153967;-58
2022/07/15 04:55:46;;;;;;;;;;;;;;;24.17;40.02;102239.53;7277740;19;154236;-59
2022/07/15 04:58:14;;;;;;;;;;;;;;;24.22;39.62;102244.28;7278964;19;152256;-59
2022/07/15 05:00:41;;;;;;;;;;;;;;;24.20;40.12;102241.78;7278433;19;154459;-58
2022/07/15 05:03:08;;;;;;;;;;;;;;;24.22;39.99;102244.28;7278137;19;153437;-58
2022/07/15 05:05:35;;;;;;;;;;;;;;;24.18;39.83;102241.22;7277181;19;153753;-58
2022/07/15 05:08:02;;;;;;;;;;;;;;;24.18;40.12;102244.06;7279220;19;152534;-58
2022/07/15 05:10:33;;;;;;;;;;;;;;;24.20;39.96;102246.59;7277848;19;152961;-58
2022/07/15 05:13:01;;;;;;;;;;;;;;;24.22;40.13;102236.66;7278035;19;152570;-58
2022/07/15 05:15:28;;;;;;;;;;;;;;;24.20;40.63;102240.94;7284456;19;153335;-59
2022/07/15 05:17:55;;;;;;;;;;;;;;;24.24;40.37;102236.34;7278451;19;153180;-58
2022/07/15 05:20:21;;;;;;;;;;;;;;;24.30;39.78;102237.97;7274748;19;152565;-59
2022/07/15 05:22:49;;;;;;;;;;;;;;;24.22;39.83;102238.63;7278988;19;153230;-59
2022/07/15 05:25:16;;;;;;;;;;;;;;;24.25;40.18;102238.03;7276196;19;153934;-59
2022/07/15 05:27:44;;;;;;;;;;;;;;;24.25;39.82;102246.53;7275112;19;152383;-59
2022/07/15 05:30:12;;;;;;;;;;;;;;;24.29;39.94;102245.63;7274524;19;153131;-58
2022/07/15 05:32:40;;;;;;;;;;;;;;;24.26;40.40;102248.19;7275471;19;153352;-57
2022/07/15 05:35:07;;;;;;;;;;;;;;;24.23;40.34;102249.63;7276415;19;152757;-58
2022/07/15 05:37:38;;;;;;;;;;;;;;;24.29;40.19;102254.09;7285064;19;152544;-58
2022/07/15 05:40:06;;;;;;;;;;;;;;;24.30;40.26;102240.81;7276826;19;152230;-58
2022/07/15 05:42:33;;;;;;;;;;;;;;;24.28;39.93;102255.22;7277329;19;153803;-58
2022/07/15 05:45:00;;;;;;;;;;;;;;;24.28;40.35;102255.22;7277643;19;154337;-58
2022/07/15 05:47:27;;;;;;;;;;;;;;;24.26;40.36;102248.19;7282673;19;152492;-59
2022/07/15 05:49:55;;;;;;;;;;;;;;;24.23;40.23;102252.47;7286104;19;152755;-58
2022/07/15 05:52:21;;;;;;;;;;;;;;;24.29;40.29;102256.06;7282491;19;153616;-58
2022/07/15 05:54:48;;;;;;;;;;;;;;;24.28;40.34;102265.69;7283525;19;152426;-58
2022/07/15 05:57:15;;;;;;;;;;;;;;;24.27;40.43;102262.00;7283591;19;153387;-58
2022/07/15 05:59:43;;;;;;;;;;;;;;;24.24;40.44;102265.44;7288005;19;154560;-58
2022/07/15 06:02:09;;;;;;;;;;;;;;;24.26;40.07;102262.31;7282786;19;152850;-58
2022/07/15 06:04:36;;;;;;;;;;;;;;;24.24;40.79;102264.59;7284808;19;153820;-58
2022/07/15 06:07:03;;;;;;;;;;;;;;;24.28;40.42;102258.03;7281442;19;153223;-58
2022/07/15 06:09:30;;;;;;;;;;;;;;;24.25;40.15;102266.28;7283904;19;153636;-58
2022/07/15 06:11:58;;;;;;;;;;;;;;;24.25;40.78;102261.50;7278475;19;153597;-58
2022/07/15 06:14:25;;;;;;;;;;;;;;;24.26;40.57;102260.31;7283820;19;151960;-58
2022/07/15 06:16:51;;;;;;;;;;;;;;;24.27;40.83;102262.00;7283994;19;153396;-59
2022/07/15 06:19:18;;;;;;;;;;;;;;;24.32;40.93;102263.94;7284789;19;154755;-59
2022/07/15 06:21:45;;;;;;;;;;;;;;;24.30;41.01;102267.03;7290691;19;151795;-59
2022/07/15 06:24:12;;;;;;;;;;;;;;;24.22;40.59;102270.53;7282421;19;153091;-60
2022/07/15 06:26:39;;;;;;;;;;;;;;;24.12;40.50;102270.63;7282823;19;151676;-60
2022/07/15 06:29:06;;;;;;;;;;;;;;;24.11;39.80;102273.78;7283557;19;152789;-59
2022/07/15 06:31:36;;;;;;;;;;;;;;;24.11;39.13;102277.44;7282633;19;153277;-59
2022/07/15 06:34:03;;;;;;;;;;;;;;;24.06;39.76;102276.66;7283603;19;154294;-59
2022/07/15 06:36:30;;;;;;;;;;;;;;;23.99;39.10;102270.50;7282645;19;154056;-59
2022/07/15 06:39:05;;;;;;;;;;;;;;;24.01;38.99;102269.09;7281878;19;154728;-59
2022/07/15 06:41:35;;;;;;;;;;;;;;;24.00;39.14;102263.72;7283006;19;152208;-58
2022/07/15 06:44:04;;;;;;;;;;;;;;;23.99;38.84;102276.16;7288486;19;154343;-58
2022/07/15 06:46:30;;;;;;;;;;;;;;;23.96;39.39;102269.13;7282638;19;152536;-60
2022/07/15 06:48:57;;;;;;;;;;;;;;;23.87;38.60;102263.31;7284415;19;152448;-60
2022/07/15 06:51:24;;;;;;;;;;;;;;;23.82;38.89;102263.38;7281320;19;153255;-60
2022/07/15 06:53:51;;;;;;;;;;;;;;;23.79;38.90;102271.59;7281959;19;152950;-60
2022/07/15 06:56:17;;;;;;;;;;;;;;;23.65;38.42;102273.44;7282190;19;153835;-60
2022/07/15 06:58:44;;;;;;;;;;;;;;;23.62;38.43;102269.22;7282746;19;153185;-60
2022/07/15 07:01:11;;;;;;;;;;;;;;;23.51;38.78;102267.66;7282101;19;152570;-60
2022/07/15 07:03:38;;;;;;;;;;;;;;;23.45;38.88;102280.09;7283732;19;153250;-60
2022/07/15 07:06:25;;;;;;;;;;;;;;;23.43;39.23;102277.56;7281725;19;152627;-60
2022/07/15 07:08:52;;;;;;;;;;;;;;;23.41;38.65;102278.97;7280751;19;153196;-60
2022/07/15 07:11:19;;;;;;;;;;;;;;;23.37;38.52;102269.44;7279942;19;153159;-59
2022/07/15 07:13:47;;;;;;;;;;;;;;;23.39;39.02;102272.81;7279626;19;153365;-60
2022/07/15 07:16:14;;;;;;;;;;;;;;;23.39;38.58;102267.97;7281712;19;153996;-60
2022/07/15 07:18:40;;;;;;;;;;;;;;;23.34;38.66;102268.06;7281368;19;153770;-60
2022/07/15 07:21:07;;;;;;;;;;;;;;;23.33;39.23;102263.53;7281595;19;152205;-59
2022/07/15 07:23:34;;;;;;;;;;;;;;;23.35;39.18;102264.06;7282078;19;152863;-60
2022/07/15 07:26:03;;;;;;;;;;;;;;;23.26;38.49;102253.75;7287226;19;153534;-60
2022/07/15 07:28:29;;;;;;;;;;;;;;;23.26;38.85;102256.56;7279834;19;154196;-59
2022/07/15 07:30:56;;;;;;;;;;;;;;;23.29;38.92;102255.97;7280441;19;153594;-58
2022/07/15 07:33:23;;;;;;;;;;;;;;;23.32;38.84;102259.03;7282008;19;152150;-59
2022/07/15 07:35:50;;;;;;;;;;;;;;;23.34;38.64;102261.56;7281702;19;154887;-60
2022/07/15 07:38:17;;;;;;;;;;;;;;;23.30;39.06;102263.31;7278886;19;153593;-58
2022/07/15 07:40:44;;;;;;;;;;;;;;;23.31;39.70;102259.31;7280607;19;152258;-60
2022/07/15 07:43:10;;;;;;;;;;;;;;;23.32;39.30;102256.22;7281919;19;153470;-60
2022/07/15 07:45:37;;;;;;;;;;;;;;;23.28;39.13;102255.13;7278151;19;154496;-60
2022/07/15 07:48:04;;;;;;;;;;;;;;;23.31;39.01;102257.34;7287781;19;152189;-60
2022/07/15 07:50:31;;;;;;;;;;;;;;;23.30;38.97;102255.69;7279861;19;154266;-59
2022/07/15 07:52:57;;;;;;;;;;;;;;;23.30;38.95;102250.03;7282766;19;154334;-60
2022/07/15 07:55:24;;;;;;;;;;;;;;;23.28;38.88;102243.00;7279963;19;152848;-60
2022/07/15 07:57:54;;;;;;;;;;;;;;;23.29;38.71;102239.91;7280825;19;153638;-59
2022/07/15 08:00:23;;;;;;;;;;;;;;;23.26;38.76;102250.94;7280004;19;152263;-60
2022/07/15 08:02:49;;;;;;;;;;;;;;;23.25;38.36;102247.28;7280419;19;152750;-60
2022/07/15 08:05:16;;;;;;;;;;;;;;;23.22;38.66;102249.81;7280067;19;154265;-59
2022/07/15 08:07:50;;;;;;;;;;;;;;;23.25;38.33;102243.59;7277066;19;152191;-59
2022/07/15 08:10:19;;;;;;;;;;;;;;;23.23;38.78;102238.25;7285626;19;152835;-59
2022/07/15 08:12:46;;;;;;;;;;;;;;;23.28;38.42;102238.22;7281160;19;152441;-59
2022/07/15 08:15:13;;;;;;;;;;;;;;;23.24;38.23;102245.56;7280043;19;153320;-59
2022/07/15 08:17:40;;;;;;;;;;;;;;;23.21;38.58;102240.53;7280053;19;152493;-60
2022/07/15 08:20:08;;;;;;;;;;;;;;;23.27;38.58;102239.34;7280419;19;152620;-60
2022/07/15 08:22:36;;;;;;;;;;;;;;;23.25;38.67;102238.81;7280550;19;153623;-60
2022/07/15 08:25:03;;;;;;;;;;;;;;;23.32;38.40;102230.84;7276200;19;153700;-60
2022/07/15 08:27:30;;;;;;;;;;;;;;;23.32;38.47;102236.47;7276795;19;152015;-60
2022/07/15 08:29:57;;;;;;;;;;;;;;;23.29;38.27;102236.22;7279659;19;154360;-60
2022/07/15 08:32:24;;;;;;;;;;;;;;;23.18;38.65;102229.81;7286638;19;154797;-59
2022/07/15 08:34:51;;;;;;;;;;;;;;;23.21;38.26;102228.41;7280456;19;154652;-59
2022/07/15 08:37:18;;;;;;;;;;;;;;;23.22;38.23;102230.91;7279022;19;154132;-59
2022/07/15 08:39:44;;;;;;;;;;;;;;;23.25;38.58;102227.53;7276567;19;152634;-60
2022/07/15 08:42:11;;;;;;;;;;;;;;;23.25;38.30;102227.53;7279608;19;153251;-60
2022/07/15 08:44:38;;;;;;;;;;;;;;;23.29;38.00;102236.22;7278330;19;152274;-60
2022/07/15 08:47:08;;;;;;;;;;;;;;;23.27;37.65;102227.22;7278650;19;152809;-59
2022/07/15 08:50:02;;;;;;;;;;;;;;;23.20;37.90;102216.28;7280157;19;153533;-58
2022/07/15 08:52:36;;;;;;;;;;;;;;;23.29;38.24;102216.50;7278516;19;154354;-60
2022/07/15 08:55:03;;;;;;;;;;;;;;;23.27;37.62;102222.41;7286822;19;152431;-59
2022/07/15 08:57:30;;;;;;;;;;;;;;;23.24;37.71;102211.75;7277633;19;153588;-60
2022/07/15 08:59:57;;;;;;;;;;;;;;;23.25;37.51;102210.59;7279365;19;151737;-59
2022/07/15 09:02:23;;;;;;;;;;;;;;;23.27;37.82;102199.00;7278085;19;152278;-59
2022/07/15 09:05:09;;;;;;;;;;;;;;;23.41;37.29;102205.63;7279474;19;153762;-59
2022/07/15 09:07:56;;;;;;;;;;;;;;;23.31;36.56;102194.44;7278348;19;152115;-59
2022/07/15 09:10:24;;;;;;;;;;;;;;;23.25;37.26;102195.66;7275871;19;153269;-60
2022/07/15 09:12:51;;;;;;;;;;;;;;;23.27;36.99;102199.00;7277844;19;153760;-60
2022/07/15 09:15:31;;;;;;;;;;;;;;;23.34;37.15;102193.88;7286221;19;153387;-59
2022/07/15 09:18:16;;;;;;;;;;;;;;;23.34;36.52;102188.25;7279903;19;153504;-60
2022/07/15 09:20:44;;;;;;;;;;;;;;;23.29;36.69;102188.28;7285048;19;152697;-60
2022/07/15 09:23:16;;;;;;;;;;;;;;;23.35;36.54;102181.44;7286770;19;152184;-59
2022/07/15 09:25:42;;;;;;;;;;;;;;;23.38;36.66;102175.22;7283437;19;153952;-59
2022/07/15 09:28:09;;;;;;;;;;;;;;;23.33;36.96;102180.91;7284913;19;152522;-60
2022/07/15 09:33:37;;;;;;;;;;;;;;;23.51;36.39;102185.81;7284341;19;153349;-60
2022/07/15 09:36:08;;;;;;;;;;;;;;;23.47;36.64;102179.94;7284549;19;153441;-60
2022/07/15 09:38:36;;;;;;;;;;;;;;;23.51;35.96;102183.00;7290267;19;152697;-59
2022/07/15 09:41:02;;;;;;;;;;;;;;;23.46;35.89;102181.06;7281637;19;155215;-58
2022/07/15 09:43:29;;;;;;;;;;;;;;;23.43;35.42;102175.16;7286149;19;152717;-60
2022/07/15 09:46:00;;;;;;;;;;;;;;;23.52;35.46;102175.38;7283547;19;154021;-59
2022/07/15 09:48:31;;;;;;;;;;;;;;;23.49;36.13;102166.38;7284701;19;151815;-60
2022/07/15 09:51:00;;;;;;;;;;;;;;;23.53;36.10;102172.25;7284631;19;152939;-59
2022/07/15 09:53:28;;;;;;;;;;;;;;;23.53;35.62;102177.88;7281029;19;153653;-59
2022/07/15 09:55:55;;;;;;;;;;;;;;;23.50;35.86;102164.38;7285648;19;152020;-59
2022/07/15 09:58:22;;;;;;;;;;;;;;;23.58;35.99;102162.88;7285095;19;153853;-60
2022/07/15 10:00:52;;;;;;;;;;;;;;;23.62;36.09;102159.16;7288058;19;153820;-59
2022/07/15 10:03:23;;;;;;;;;;;;;;;23.67;35.79;102152.63;7282203;19;153259;-60
2022/07/15 10:05:55;;;;;;;;;;;;;;;23.74;35.64;102161.56;7280305;19;152485;-60
2022/07/15 10:08:24;;;;;;;;;;;;;;;23.69;35.61;102150.34;7280711;19;152318;-60
2022/07/15 10:10:51;;;;;;;;;;;;;;;23.70;35.73;102157.69;7284232;19;153035;-59
2022/07/15 10:13:29;;;;;;;;;;;;;;;23.74;35.76;102153.97;7282429;19;153588;-60
2022/07/15 10:16:06;;;;;;;;;;;;;;;23.81;35.71;102147.94;7283591;19;151829;-59
2022/07/15 10:18:56;;;;;;;;;;;;;;;23.87;35.53;102141.09;7284807;19;152275;-59
2022/07/15 10:21:29;;;;;;;;;;;;;;;23.94;35.78;102133.91;7282128;19;153611;-60
2022/07/15 10:24:15;;;;;;;;;;;;;;;24.04;34.55;102140.56;7290646;19;152004;-59
2022/07/15 10:26:48;;;;;;;;;;;;;;;24.04;34.74;102134.91;7281343;19;152429;-59
2022/07/15 10:29:16;;;;;;;;;;;;;;;24.05;34.54;102136.59;7282025;19;152255;-60
2022/07/15 10:31:43;;;;;;;;;;;;;;;24.09;34.34;102135.69;7280418;19;153905;-60
2022/07/15 10:34:10;;;;;;;;;;;;;;;24.14;34.77;102124.34;7282687;19;154123;-60
2022/07/15 10:36:57;;;;;;;;;;;;;;;24.18;35.26;102133.06;7282394;19;152311;-60
2022/07/15 10:39:26;;;;;;;;;;;;;;;24.24;35.16;102129.88;7282985;19;152465;-60
2022/07/15 10:41:52;;;;;;;;;;;;;;;24.25;34.74;102134.38;7280809;19;153485;-60
2022/07/15 10:44:19;;;;;;;;;;;;;;;24.32;34.22;102133.97;7282630;19;152465;-60
2022/07/15 10:46:47;;;;;;;;;;;;;;;24.34;34.11;102137.34;7289942;19;153428;-59
2022/07/15 10:49:14;;;;;;;;;;;;;;;24.34;35.07;102126.91;7281763;19;151914;-59
2022/07/15 10:51:41;;;;;;;;;;;;;;;24.38;35.12;102134.75;7280109;19;154062;-60
2022/07/15 10:54:30;;;;;;;;;;;;;;;24.42;34.46;102147.97;7280663;19;153305;-60
2022/07/15 10:56:57;;;;;;;;;;;;;;;24.47;34.27;102144.22;7280713;19;152149;-58
2022/07/15 10:59:24;;;;;;;;;;;;;;;24.52;33.50;102138.50;7282302;19;153615;-59
2022/07/15 11:02:00;;;;;;;;;;;;;;;24.57;33.29;102132.75;7281085;19;153709;-60
2022/07/15 11:04:28;;;;;;;;;;;;;;;24.53;33.88;102126.03;7283067;19;152233;-60
2022/07/15 11:07:07;;;;;;;;;;;;;;;24.57;34.16;102124.28;7282114;19;152832;-60
2022/07/15 11:09:47;;;;;;;;;;;;;;;24.57;34.58;102127.09;7283846;19;152760;-60
2022/07/15 11:12:15;;;;;;;;;;;;;;;24.59;34.62;102119.16;7281693;19;152673;-60
2022/07/15 11:14:43;;;;;;;;;;;;;;;24.59;34.39;102117.16;7281766;19;153704;-60
2022/07/15 11:17:10;;;;;;;;;;;;;;;24.61;34.37;102108.38;7283173;19;152337;-60
2022/07/15 11:19:37;;;;;;;;;;;;;;;24.63;34.67;102108.91;7283365;19;153471;-60
2022/07/15 11:22:04;;;;;;;;;;;;;;;24.63;33.98;102108.91;7278130;19;153646;-60
2022/07/15 11:24:31;;;;;;;;;;;;;;;24.63;34.62;102101.25;7281986;19;152431;-58
2022/07/15 11:27:01;;;;;;;;;;;;;;;24.67;34.77;102098.66;7282205;19;152601;-60
2022/07/15 11:29:40;;;;;;;;;;;;;;;24.69;35.11;102090.72;7286049;19;154125;-59
2022/07/15 11:32:07;;;;;;;;;;;;;;;24.71;35.02;102094.09;7281984;19;153206;-59
2022/07/15 11:34:42;;;;;;;;;;;;;;;24.71;35.03;102086.41;7280986;19;154061;-59
2022/07/15 11:37:10;;;;;;;;;;;;;;;24.76;34.90;102083.50;7280822;19;152657;-60
2022/07/15 11:39:37;;;;;;;;;;;;;;;24.78;34.65;102084.06;7282614;19;153821;-60
2022/07/15 11:44:50;;;;;;;;;;;;;;;24.74;34.67;102076.50;7281590;19;153579;-60
2022/07/15 11:47:18;;;;;;;;;;;;;;;24.79;32.79;102085.72;7281562;19;154030;-59
2022/07/15 11:49:50;;;;;;;;;;;;;;;24.86;32.71;102084.47;7278372;19;154848;-60
2022/07/15 11:52:24;;;;;;;;;;;;;;;24.89;33.05;102081.91;7287613;19;152806;-60
2022/07/15 11:54:50;;;;;;;;;;;;;;;24.90;32.14;102086.41;7280204;19;156339;-60
2022/07/15 11:57:18;;;;;;;;;;;;;;;24.95;32.42;102082.63;7280088;19;153232;-60
2022/07/15 11:59:52;;;;;;;;;;;;;;;24.94;33.05;102084.63;7280235;19;153186;-60
2022/07/15 12:02:18;;;;;;;;;;;;;;;24.96;32.74;102084.31;7279089;19;153959;-59
2022/07/15 12:04:45;;;;;;;;;;;;;;;24.96;32.82;102076.69;7282356;19;154098;-59
2022/07/15 12:07:12;;;;;;;;;;;;;;;24.97;32.52;102069.88;7280145;19;152190;-60
2022/07/15 12:09:40;;;;;;;;;;;;;;;25.02;32.92;102063.28;7276293;19;153915;-60
2022/07/15 12:12:07;;;;;;;;;;;;;;;25.04;33.34;102060.97;7278223;19;152246;-60
2022/07/15 12:14:33;;;;;;;;;;;;;;;25.07;33.30;102072.53;7287379;19;152944;-60
2022/07/15 12:17:01;;;;;;;;;;;;;;;25.07;33.54;102069.69;7281140;19;151832;-60
2022/07/15 12:19:29;;;;;;;;;;;;;;;25.12;32.08;102058.25;7282265;19;153200;-60
2022/07/15 12:21:59;;;;;;;;;;;;;;;25.12;33.03;102057.44;7278437;19;154331;-60
2022/07/15 12:24:36;;;;;;;;;;;;;;;25.12;32.48;102063.09;7280293;19;151984;-60
2022/07/15 12:27:03;;;;;;;;;;;;;;;25.12;32.60;102061.09;7278968;19;153565;-60
2022/07/15 12:29:31;;;;;;;;;;;;;;;25.17;32.89;102062.97;7276934;19;154191;-60
2022/07/15 12:32:17;;;;;;;;;;;;;;;25.22;32.84;102060.88;7280031;19;152086;-59
2022/07/15 12:34:47;;;;;;;;;;;;;;;25.12;33.24;102058.25;7281313;19;153766;-60
2022/07/15 12:37:15;;;;;;;;;;;;;;;25.11;33.71;102048.13;7286010;19;153229;-60
2022/07/15 12:40:00;;;;;;;;;;;;;;;25.12;33.90;102057.44;7278962;19;152408;-60
2022/07/15 12:42:31;;;;;;;;;;;;;;;25.09;34.84;102050.41;7277898;19;154607;-59
2022/07/15 12:45:16;;;;;;;;;;;;;;;25.10;34.19;102054.91;7276046;19;152736;-60
2022/07/15 12:47:58;;;;;;;;;;;;;;;25.14;34.74;102064.44;7279984;19;152455;-60